Time;durP1;ratioP1;P1;durP2;ratioP2;P2;SDS_P1;SDS_P2;PMS_P1;PMS_P2;Temp;Humidity;BMP_temperature;BMP_pressure;BME280_temperature;BME280_humidity;BME280_pressure;Samples;Min_cycle;Max_cycle;Signal;HPM_P1;HPM_P2
2023/04/20 00:00:20;;;;;;;1.88;1.77;;;;;;;;;;5001416;28;20215;-61
2023/04/20 00:02:50;;;;;;;1.80;1.70;;;;;;;;;;5000742;28;20571;-61
2023/04/20 00:05:17;;;;;;;1.80;1.70;;;;;;;;;;5001298;28;20581;-61
2023/04/20 00:07:45;;;;;;;2.05;1.95;;;;;;;;;;5000939;28;20270;-61
2023/04/20 00:10:12;;;;;;;1.63;1.52;;;;;;;;;;5001048;28;20207;-61
2023/04/20 00:12:40;;;;;;;1.80;1.70;;;;;;;;;;5000868;28;20298;-62
2023/04/20 00:15:08;;;;;;;1.90;1.80;;;;;;;;;;5000838;28;20207;-61
2023/04/20 00:17:35;;;;;;;2.00;1.90;;;;;;;;;;5000890;28;20273;-61
2023/04/20 00:20:04;;;;;;;2.05;1.95;;;;;;;;;;5000538;28;20622;-61
2023/04/20 00:22:32;;;;;;;1.90;1.80;;;;;;;;;;5000740;28;20601;-61
2023/04/20 00:25:00;;;;;;;2.00;1.90;;;;;;;;;;5000674;28;20602;-61
2023/04/20 00:27:28;;;;;;;2.08;1.98;;;;;;;;;;5000615;28;20325;-61
2023/04/20 00:29:56;;;;;;;2.03;1.92;;;;;;;;;;5000386;28;20250;-61
2023/04/20 00:32:24;;;;;;;1.90;1.80;;;;;;;;;;5000309;28;20211;-61
2023/04/20 00:34:52;;;;;;;2.00;1.90;;;;;;;;;;5000571;28;20212;-61
2023/04/20 00:37:21;;;;;;;2.10;2.00;;;;;;;;;;4998758;28;20534;-61
2023/04/20 00:39:48;;;;;;;2.28;2.08;;;;;;;;;;5000612;28;20263;-61
2023/04/20 00:42:16;;;;;;;1.98;1.85;;;;;;;;;;5000554;28;20244;-61
2023/04/20 00:44:44;;;;;;;1.90;1.80;;;;;;;;;;5000434;28;20270;-61
2023/04/20 00:47:11;;;;;;;2.20;2.10;;;;;;;;;;5000266;28;20289;-61
2023/04/20 00:49:39;;;;;;;2.20;2.10;;;;;;;;;;5000135;28;20211;-61
2023/04/20 00:52:06;;;;;;;2.20;2.10;;;;;;;;;;5000591;28;20213;-61
2023/04/20 00:54:36;;;;;;;1.90;1.80;;;;;;;;;;4999901;28;20464;-61
2023/04/20 00:57:05;;;;;;;2.10;2.00;;;;;;;;;;5000575;28;20211;-61
2023/04/20 00:59:33;;;;;;;2.08;1.98;;;;;;;;;;5000276;28;20290;-61
2023/04/20 01:02:00;;;;;;;2.20;2.10;;;;;;;;;;4999916;28;20513;-61
2023/04/20 01:04:28;;;;;;;2.20;2.00;;;;;;;;;;4999750;28;20246;-61
2023/04/20 01:06:55;;;;;;;2.38;2.10;;;;;;;;;;4999863;28;20262;-61
2023/04/20 01:09:23;;;;;;;2.25;2.05;;;;;;;;;;5000033;28;20482;-62
2023/04/20 01:11:52;;;;;;;2.10;2.00;;;;;;;;;;4999964;28;20207;-61
2023/04/20 01:14:20;;;;;;;2.30;2.13;;;;;;;;;;4999837;28;20270;-61
2023/04/20 01:16:48;;;;;;;2.10;2.00;;;;;;;;;;4999378;28;20536;-61
2023/04/20 01:19:15;;;;;;;2.38;2.20;;;;;;;;;;5000262;28;20215;-61
2023/04/20 01:21:43;;;;;;;2.42;2.22;;;;;;;;;;4999795;28;20207;-61
2023/04/20 01:24:12;;;;;;;2.22;2.13;;;;;;;;;;4999751;28;20293;-61
2023/04/20 01:26:39;;;;;;;2.50;2.30;;;;;;;;;;4999288;28;20763;-62
2023/04/20 01:29:07;;;;;;;2.30;2.10;;;;;;;;;;5000149;28;20269;-61
2023/04/20 01:31:34;;;;;;;2.30;2.15;;;;;;;;;;4999542;28;20215;-62
2023/04/20 01:34:02;;;;;;;2.70;2.50;;;;;;;;;;4999954;28;20215;-61
2023/04/20 01:36:30;;;;;;;2.70;2.50;;;;;;;;;;4999552;28;20258;-61
2023/04/20 01:38:58;;;;;;;2.63;2.42;;;;;;;;;;4999511;28;20262;-63
2023/04/20 01:41:26;;;;;;;2.45;2.25;;;;;;;;;;4999866;28;20269;-62
2023/04/20 01:43:54;;;;;;;2.55;2.35;;;;;;;;;;4999825;28;20238;-61
2023/04/20 01:46:21;;;;;;;2.88;2.67;;;;;;;;;;4999053;28;20206;-61
2023/04/20 01:48:49;;;;;;;3.00;2.80;;;;;;;;;;4998376;28;20234;-61
2023/04/20 01:51:16;;;;;;;2.90;2.70;;;;;;;;;;4999348;28;20310;-61
2023/04/20 01:53:44;;;;;;;2.58;2.38;;;;;;;;;;4999808;28;20486;-61
2023/04/20 01:56:12;;;;;;;3.15;2.85;;;;;;;;;;4998931;28;20602;-61
2023/04/20 01:58:40;;;;;;;3.00;2.80;;;;;;;;;;4999139;28;20242;-61
2023/04/20 02:01:08;;;;;;;2.80;2.60;;;;;;;;;;4999288;28;20207;-61
2023/04/20 02:03:35;;;;;;;2.60;2.40;;;;;;;;;;4999256;28;20270;-62
2023/04/20 02:06:03;;;;;;;2.80;2.60;;;;;;;;;;4999276;28;20658;-61
2023/04/20 02:08:30;;;;;;;2.95;2.75;;;;;;;;;;4998846;28;20230;-62
2023/04/20 02:10:58;;;;;;;2.95;2.75;;;;;;;;;;4999057;28;20242;-62
2023/04/20 02:13:25;;;;;;;3.20;2.90;;;;;;;;;;4998970;28;20207;-61
2023/04/20 02:15:55;;;;;;;2.90;2.70;;;;;;;;;;4998846;28;20207;-62
2023/04/20 02:18:23;;;;;;;3.13;2.92;;;;;;;;;;4998968;28;20533;-62
2023/04/20 02:20:51;;;;;;;3.03;2.83;;;;;;;;;;4998279;28;20310;-62
2023/04/20 02:23:18;;;;;;;3.10;2.90;;;;;;;;;;4998350;28;20221;-62
2023/04/20 02:25:46;;;;;;;2.97;2.78;;;;;;;;;;4998837;28;20305;-62
2023/04/20 02:28:13;;;;;;;3.17;2.97;;;;;;;;;;4998736;28;20284;-62
2023/04/20 02:30:40;;;;;;;3.03;2.83;;;;;;;;;;4998451;28;20208;-62
2023/04/20 02:33:10;;;;;;;3.22;3.03;;;;;;;;;;4998609;28;20634;-62
2023/04/20 02:35:37;;;;;;;3.25;3.05;;;;;;;;;;4998145;28;20295;-62
2023/04/20 02:38:05;;;;;;;3.33;3.13;;;;;;;;;;4998332;28;20249;-62
2023/04/20 02:40:32;;;;;;;3.17;2.97;;;;;;;;;;4998709;28;20306;-62
2023/04/20 02:43:00;;;;;;;3.47;3.17;;;;;;;;;;4998371;28;20217;-61
2023/04/20 02:45:29;;;;;;;3.88;3.58;;;;;;;;;;4998485;28;20250;-62
2023/04/20 02:47:57;;;;;;;3.70;3.42;;;;;;;;;;4997809;28;20306;-62
2023/04/20 02:50:25;;;;;;;3.33;3.13;;;;;;;;;;4998424;28;20220;-62
2023/04/20 02:52:53;;;;;;;3.13;2.92;;;;;;;;;;4997891;28;20558;-62
2023/04/20 02:55:21;;;;;;;3.72;3.42;;;;;;;;;;4998209;28;20234;-62
2023/04/20 02:57:48;;;;;;;3.70;3.40;;;;;;;;;;4998018;28;20211;-62
2023/04/20 03:00:16;;;;;;;3.90;3.60;;;;;;;;;;4997728;28;20353;-62
2023/04/20 03:02:44;;;;;;;3.55;3.25;;;;;;;;;;4997884;28;20217;-62
2023/04/20 03:05:12;;;;;;;3.50;3.20;;;;;;;;;;4997876;28;20218;-62
2023/04/20 03:07:41;;;;;;;3.60;3.33;;;;;;;;;;4997583;28;20234;-62
2023/04/20 03:10:09;;;;;;;3.42;3.15;;;;;;;;;;4997701;28;20217;-62
2023/04/20 03:12:37;;;;;;;3.83;3.55;;;;;;;;;;4997670;28;20207;-62
2023/04/20 03:15:05;;;;;;;3.85;3.55;;;;;;;;;;4997362;28;20210;-62
2023/04/20 03:17:32;;;;;;;3.33;3.13;;;;;;;;;;4998037;28;20514;-62
2023/04/20 03:20:00;;;;;;;3.50;3.20;;;;;;;;;;4997424;28;20302;-61
2023/04/20 03:22:27;;;;;;;3.28;3.08;;;;;;;;;;4997628;28;20652;-62
2023/04/20 03:24:56;;;;;;;3.95;3.65;;;;;;;;;;4997922;28;20294;-62
2023/04/20 03:27:24;;;;;;;3.83;3.53;;;;;;;;;;4997446;28;20227;-62
2023/04/20 03:29:51;;;;;;;3.33;3.13;;;;;;;;;;4997166;28;20294;-62
2023/04/20 03:32:19;;;;;;;3.65;3.35;;;;;;;;;;4997354;28;20241;-62
2023/04/20 03:34:46;;;;;;;3.42;3.22;;;;;;;;;;4997535;28;20587;-62
2023/04/20 03:37:14;;;;;;;3.35;3.15;;;;;;;;;;4997656;28;20294;-62
2023/04/20 03:39:42;;;;;;;3.75;3.45;;;;;;;;;;4997488;28;20277;-62
2023/04/20 03:42:11;;;;;;;3.47;3.28;;;;;;;;;;4997168;28;20288;-62
2023/04/20 03:44:38;;;;;;;3.33;3.03;;;;;;;;;;4997320;28;20234;-62
2023/04/20 03:47:06;;;;;;;3.72;3.42;;;;;;;;;;4997280;28;20223;-62
2023/04/20 03:49:33;;;;;;;3.80;3.50;;;;;;;;;;4997365;28;20302;-62
2023/04/20 03:52:01;;;;;;;3.40;3.20;;;;;;;;;;4997178;28;20233;-62
2023/04/20 03:54:29;;;;;;;4.03;3.72;;;;;;;;;;4996963;28;20607;-62
2023/04/20 03:56:57;;;;;;;3.38;3.15;;;;;;;;;;4997142;28;20299;-62
2023/04/20 03:59:26;;;;;;;3.70;3.40;;;;;;;;;;4997144;28;20495;-62
2023/04/20 04:01:53;;;;;;;3.50;3.20;;;;;;;;;;4997231;28;20262;-62
2023/04/20 04:04:21;;;;;;;3.78;3.47;;;;;;;;;;4996313;28;20329;-62
2023/04/20 04:06:48;;;;;;;3.63;3.33;;;;;;;;;;4997069;28;20217;-62
2023/04/20 04:09:16;;;;;;;3.22;3.03;;;;;;;;;;4996944;28;20498;-62
2023/04/20 04:11:44;;;;;;;3.47;3.22;;;;;;;;;;4997686;28;20203;-62
2023/04/20 04:14:11;;;;;;;3.50;3.20;;;;;;;;;;5000584;28;20226;-62
2023/04/20 04:16:40;;;;;;;3.60;3.30;;;;;;;;;;5000905;28;20301;-62
2023/04/20 04:19:08;;;;;;;3.50;3.20;;;;;;;;;;5000855;28;20210;-62
2023/04/20 04:21:35;;;;;;;3.80;3.50;;;;;;;;;;5000464;28;20305;-62
2023/04/20 04:24:03;;;;;;;3.22;3.03;;;;;;;;;;4999969;28;20207;-62
2023/04/20 04:26:30;;;;;;;3.22;3.03;;;;;;;;;;5000325;28;20246;-62
2023/04/20 04:28:58;;;;;;;3.55;3.25;;;;;;;;;;5000138;28;20303;-62
2023/04/20 04:31:25;;;;;;;3.50;3.20;;;;;;;;;;5000011;28;20235;-62
2023/04/20 04:33:54;;;;;;;3.33;3.03;;;;;;;;;;5000044;28;20451;-62
2023/04/20 04:36:23;;;;;;;3.17;2.97;;;;;;;;;;4999760;28;20217;-62
2023/04/20 04:38:51;;;;;;;3.35;3.05;;;;;;;;;;4999702;28;20258;-62
2023/04/20 04:41:19;;;;;;;3.03;2.83;;;;;;;;;;4998816;28;20214;-62
2023/04/20 04:43:46;;;;;;;3.10;2.90;;;;;;;;;;4999932;28;20463;-62
2023/04/20 04:46:14;;;;;;;3.28;2.97;;;;;;;;;;4998838;28;20207;-62
2023/04/20 04:48:42;;;;;;;3.15;2.95;;;;;;;;;;4998802;28;20226;-62
2023/04/20 04:51:10;;;;;;;3.35;3.15;;;;;;;;;;4999578;28;20211;-62
2023/04/20 04:53:38;;;;;;;3.30;3.00;;;;;;;;;;4998484;28;20207;-62
2023/04/20 04:56:06;;;;;;;3.42;3.13;;;;;;;;;;4998245;28;20215;-62
2023/04/20 04:58:33;;;;;;;3.42;3.22;;;;;;;;;;4998642;28;20195;-62
2023/04/20 05:01:00;;;;;;;3.42;3.17;;;;;;;;;;4998081;28;20211;-62
2023/04/20 05:03:28;;;;;;;3.47;3.17;;;;;;;;;;4997619;28;20255;-62
2023/04/20 05:05:55;;;;;;;3.50;3.20;;;;;;;;;;4997030;28;20203;-62
2023/04/20 05:08:28;;;;;;;3.15;2.95;;;;;;;;;;4996291;28;20234;-62
2023/04/20 05:10:56;;;;;;;3.30;3.10;;;;;;;;;;4997350;28;20510;-62
2023/04/20 05:13:23;;;;;;;3.38;3.13;;;;;;;;;;4996883;28;20573;-62
2023/04/20 05:15:50;;;;;;;3.53;3.33;;;;;;;;;;4997154;28;20238;-62
2023/04/20 05:18:18;;;;;;;3.40;3.10;;;;;;;;;;4997290;28;20204;-62
2023/04/20 05:20:45;;;;;;;3.25;2.97;;;;;;;;;;4997067;28;20486;-62
2023/04/20 05:23:12;;;;;;;3.20;3.00;;;;;;;;;;4997325;28;20230;-62
2023/04/20 05:25:41;;;;;;;3.35;3.13;;;;;;;;;;4997604;28;20213;-62
2023/04/20 05:28:09;;;;;;;3.20;3.00;;;;;;;;;;4997197;28;20262;-62
2023/04/20 05:30:36;;;;;;;3.17;2.97;;;;;;;;;;4995932;28;20218;-63
2023/04/20 05:33:04;;;;;;;3.55;3.25;;;;;;;;;;4996184;28;20207;-63
2023/04/20 05:35:31;;;;;;;3.05;2.85;;;;;;;;;;4997158;28;20269;-61
2023/04/20 05:38:01;;;;;;;3.60;3.28;;;;;;;;;;4996622;28;20207;-61
2023/04/20 05:40:28;;;;;;;2.95;2.75;;;;;;;;;;4996984;28;20440;-61
2023/04/20 05:42:57;;;;;;;3.10;2.90;;;;;;;;;;4996695;28;20217;-61
2023/04/20 05:45:25;;;;;;;3.05;2.85;;;;;;;;;;4996213;28;20218;-60
2023/04/20 05:47:55;;;;;;;4.63;3.00;;;;;;;;;;4996613;28;20214;-61
2023/04/20 05:50:23;;;;;;;4.40;3.25;;;;;;;;;;4996618;28;20207;-61
2023/04/20 05:52:50;;;;;;;3.72;3.17;;;;;;;;;;4996903;28;20257;-61
2023/04/20 05:55:18;;;;;;;2.95;2.67;;;;;;;;;;4996739;28;20213;-61
2023/04/20 05:57:45;;;;;;;3.33;3.03;;;;;;;;;;4996489;28;20281;-61
2023/04/20 06:00:15;;;;;;;3.30;2.90;;;;;;;;;;4997143;28;20207;-61
2023/04/20 06:02:43;;;;;;;3.05;2.85;;;;;;;;;;4997020;28;20470;-61
2023/04/20 06:05:10;;;;;;;3.63;2.70;;;;;;;;;;4995824;28;20268;-61
2023/04/20 06:07:38;;;;;;;2.95;2.72;;;;;;;;;;4996268;28;20215;-61
2023/04/20 06:10:07;;;;;;;3.22;2.90;;;;;;;;;;4996760;28;20234;-61
2023/04/20 06:12:34;;;;;;;2.90;2.70;;;;;;;;;;4996382;28;20234;-61
2023/04/20 06:15:01;;;;;;;3.10;2.80;;;;;;;;;;4996625;28;20516;-61
2023/04/20 06:17:30;;;;;;;3.45;2.97;;;;;;;;;;4996067;28;20234;-61
2023/04/20 06:19:57;;;;;;;3.22;2.92;;;;;;;;;;4995350;28;20214;-61
2023/04/20 06:22:25;;;;;;;3.10;2.80;;;;;;;;;;4996391;28;20752;-61
2023/04/20 06:24:52;;;;;;;3.55;2.83;;;;;;;;;;4996898;28;20618;-61
2023/04/20 06:27:20;;;;;;;3.13;2.90;;;;;;;;;;4996506;28;20543;-61
2023/04/20 06:29:47;;;;;;;2.97;2.60;;;;;;;;;;4996436;28;20230;-61
2023/04/20 06:32:14;;;;;;;2.70;2.50;;;;;;;;;;4996542;28;20207;-61
2023/04/20 06:34:43;;;;;;;3.03;2.83;;;;;;;;;;4995579;28;20210;-61
2023/04/20 06:37:10;;;;;;;2.85;2.65;;;;;;;;;;4996600;28;20206;-61
2023/04/20 06:39:37;;;;;;;3.00;2.70;;;;;;;;;;4995508;28;20203;-61
2023/04/20 06:42:05;;;;;;;2.95;2.70;;;;;;;;;;4996075;28;20198;-61
2023/04/20 06:44:32;;;;;;;2.95;2.70;;;;;;;;;;4996772;28;20285;-61
2023/04/20 06:47:00;;;;;;;3.08;2.70;;;;;;;;;;4996069;28;20210;-61
2023/04/20 06:49:27;;;;;;;3.13;2.60;;;;;;;;;;4995843;28;20242;-61
2023/04/20 06:51:56;;;;;;;3.10;2.80;;;;;;;;;;4995430;28;20210;-61
2023/04/20 06:54:23;;;;;;;3.05;2.85;;;;;;;;;;4995938;28;20207;-61
2023/04/20 06:56:50;;;;;;;3.03;2.80;;;;;;;;;;4995855;28;20273;-61
2023/04/20 06:59:18;;;;;;;2.88;2.67;;;;;;;;;;4994967;28;20203;-61
2023/04/20 07:01:45;;;;;;;2.40;2.30;;;;;;;;;;4995633;28;20257;-61
2023/04/20 07:04:13;;;;;;;2.75;2.55;;;;;;;;;;4997361;28;20227;-61
2023/04/20 07:06:40;;;;;;;2.70;2.50;;;;;;;;;;4995704;28;20214;-61
2023/04/20 07:09:09;;;;;;;2.67;2.47;;;;;;;;;;4995999;28;20568;-61
2023/04/20 07:11:36;;;;;;;2.78;2.58;;;;;;;;;;4994767;28;20207;-61
2023/04/20 07:14:03;;;;;;;2.85;2.65;;;;;;;;;;4995355;28;20218;-61
2023/04/20 07:16:31;;;;;;;2.88;2.67;;;;;;;;;;4995830;28;20213;-62
2023/04/20 07:18:58;;;;;;;3.05;2.85;;;;;;;;;;4995328;28;20210;-61
2023/04/20 07:21:25;;;;;;;3.00;2.80;;;;;;;;;;4995019;28;20277;-61
2023/04/20 07:23:55;;;;;;;2.70;2.50;;;;;;;;;;4994990;28;20207;-61
2023/04/20 07:26:24;;;;;;;3.58;2.60;;;;;;;;;;4996027;28;20207;-61
2023/04/20 07:28:52;;;;;;;2.80;2.60;;;;;;;;;;4994978;28;20226;-61
2023/04/20 07:31:19;;;;;;;2.80;2.60;;;;;;;;;;4995577;28;20211;-62
2023/04/20 07:33:46;;;;;;;2.70;2.50;;;;;;;;;;4995389;28;20660;-61
2023/04/20 07:36:13;;;;;;;2.60;2.40;;;;;;;;;;4995628;28;20215;-61
2023/04/20 07:38:41;;;;;;;2.58;2.38;;;;;;;;;;4994871;28;20215;-61
2023/04/20 07:41:09;;;;;;;2.50;2.35;;;;;;;;;;4994289;28;20214;-61
2023/04/20 07:43:38;;;;;;;2.80;2.60;;;;;;;;;;4994795;28;20543;-61
2023/04/20 07:46:06;;;;;;;3.10;2.90;;;;;;;;;;4994989;28;20657;-61
2023/04/20 07:48:34;;;;;;;2.75;2.55;;;;;;;;;;4998546;28;20211;-61
2023/04/20 07:51:01;;;;;;;3.00;2.80;;;;;;;;;;4996034;28;20272;-61
2023/04/20 07:53:29;;;;;;;2.60;2.40;;;;;;;;;;4998904;28;20229;-61
2023/04/20 07:55:57;;;;;;;2.75;2.55;;;;;;;;;;4999182;28;20272;-61
2023/04/20 07:58:24;;;;;;;3.05;2.85;;;;;;;;;;4998919;28;20206;-61
2023/04/20 08:00:53;;;;;;;3.05;2.85;;;;;;;;;;4998443;28;20813;-61
2023/04/20 08:03:20;;;;;;;2.95;2.75;;;;;;;;;;4998609;28;20246;-61
2023/04/20 08:05:47;;;;;;;2.17;2.08;;;;;;;;;;4998287;28;20206;-61
2023/04/20 08:08:16;;;;;;;2.65;2.45;;;;;;;;;;4999476;28;20214;-61
2023/04/20 08:10:43;;;;;;;2.65;2.45;;;;;;;;;;4998586;28;20231;-62
2023/04/20 08:13:11;;;;;;;3.20;3.00;;;;;;;;;;4998821;28;20226;-61
2023/04/20 08:15:38;;;;;;;2.83;2.63;;;;;;;;;;4998774;28;20207;-61
2023/04/20 08:18:07;;;;;;;2.47;2.28;;;;;;;;;;4998930;28;20233;-61
2023/04/20 08:20:34;;;;;;;2.78;2.58;;;;;;;;;;4998999;28;20610;-61
2023/04/20 08:23:02;;;;;;;2.95;2.65;;;;;;;;;;4999142;28;20492;-61
2023/04/20 08:25:31;;;;;;;2.63;2.50;;;;;;;;;;4998605;28;20543;-61
2023/04/20 08:27:58;;;;;;;3.00;2.80;;;;;;;;;;4998740;28;20214;-62
2023/04/20 08:30:27;;;;;;;2.78;2.42;;;;;;;;;;4998656;28;20238;-61
2023/04/20 08:32:54;;;;;;;2.88;2.67;;;;;;;;;;4998698;28;20822;-61
2023/04/20 08:35:23;;;;;;;2.88;2.67;;;;;;;;;;4998946;28;20203;-61
2023/04/20 08:37:50;;;;;;;3.45;2.75;;;;;;;;;;4997850;28;20215;-61
2023/04/20 08:40:18;;;;;;;2.75;2.55;;;;;;;;;;4998135;28;20310;-61
2023/04/20 08:42:46;;;;;;;2.50;2.30;;;;;;;;;;4998177;28;20306;-61
2023/04/20 08:45:13;;;;;;;2.72;2.53;;;;;;;;;;4997622;28;20702;-61
2023/04/20 08:47:41;;;;;;;2.58;2.40;;;;;;;;;;4998068;28;20233;-61
2023/04/20 08:50:09;;;;;;;3.08;2.80;;;;;;;;;;4997948;28;20297;-61
2023/04/20 08:52:38;;;;;;;3.08;2.88;;;;;;;;;;4998160;28;20206;-61
2023/04/20 08:55:07;;;;;;;2.70;2.50;;;;;;;;;;4997990;28;20214;-61
2023/04/20 08:57:34;;;;;;;3.42;3.13;;;;;;;;;;4997257;28;20261;-61
2023/04/20 09:00:04;;;;;;;2.80;2.60;;;;;;;;;;4997726;28;20202;-61
2023/04/20 09:02:31;;;;;;;2.83;2.63;;;;;;;;;;4997255;28;20784;-61
2023/04/20 09:05:03;;;;;;;2.90;2.70;;;;;;;;;;4997952;28;20235;-61
2023/04/20 09:07:30;;;;;;;2.90;2.70;;;;;;;;;;4998608;28;20218;-61
2023/04/20 09:09:59;;;;;;;3.15;2.88;;;;;;;;;;4998007;28;20231;-62
2023/04/20 09:12:27;;;;;;;2.83;2.63;;;;;;;;;;4998009;28;20595;-61
2023/04/20 09:14:54;;;;;;;2.60;2.40;;;;;;;;;;4998033;28;20595;-61
2023/04/20 09:17:31;;;;;;;2.70;2.50;;;;;;;;;;4998230;28;20230;-61
2023/04/20 09:19:58;;;;;;;2.80;2.60;;;;;;;;;;4997922;28;20202;-61
2023/04/20 09:22:32;;;;;;;2.63;2.42;;;;;;;;;;4997846;28;20211;-61
2023/04/20 09:25:01;;;;;;;2.90;2.70;;;;;;;;;;4997744;28;20215;-61
2023/04/20 09:27:28;;;;;;;2.80;2.60;;;;;;;;;;4997280;28;20587;-61
2023/04/20 09:29:59;;;;;;;2.80;2.60;;;;;;;;;;4997564;28;20835;-61
2023/04/20 09:32:27;;;;;;;2.60;2.40;;;;;;;;;;4996503;28;20205;-61
2023/04/20 09:34:55;;;;;;;2.58;2.40;;;;;;;;;;4996146;28;20234;-61
2023/04/20 09:37:22;;;;;;;2.90;2.70;;;;;;;;;;4996398;28;20199;-61
2023/04/20 09:39:50;;;;;;;3.10;2.90;;;;;;;;;;4995176;28;20806;-61
2023/04/20 09:42:19;;;;;;;2.38;2.20;;;;;;;;;;4996124;28;20258;-61
2023/04/20 09:44:47;;;;;;;2.90;2.70;;;;;;;;;;4996360;28;20610;-61
2023/04/20 09:47:17;;;;;;;2.67;2.47;;;;;;;;;;4996610;28;20511;-61
2023/04/20 09:49:45;;;;;;;2.80;2.60;;;;;;;;;;4996515;28;20238;-61
2023/04/20 09:52:13;;;;;;;2.70;2.50;;;;;;;;;;4996549;28;20294;-61
2023/04/20 09:54:41;;;;;;;2.58;2.38;;;;;;;;;;4997173;28;20218;-61
2023/04/20 09:57:10;;;;;;;2.47;2.35;;;;;;;;;;4996578;28;20595;-61
2023/04/20 09:59:39;;;;;;;2.70;2.50;;;;;;;;;;4996898;28;20314;-61
2023/04/20 10:02:09;;;;;;;3.00;2.80;;;;;;;;;;4997253;28;20285;-61
2023/04/20 10:04:36;;;;;;;2.60;2.40;;;;;;;;;;4996270;28;20730;-61
2023/04/20 10:07:05;;;;;;;2.65;2.45;;;;;;;;;;4995998;28;20293;-61
2023/04/20 10:09:33;;;;;;;2.97;2.78;;;;;;;;;;4995022;28;20230;-61
2023/04/20 10:12:06;;;;;;;2.63;2.42;;;;;;;;;;4994938;28;20288;-61
2023/04/20 10:14:34;;;;;;;2.78;2.58;;;;;;;;;;4995929;28;20650;-61
2023/04/20 10:17:04;;;;;;;2.58;2.38;;;;;;;;;;4995956;28;20603;-61
2023/04/20 10:19:38;;;;;;;2.65;2.45;;;;;;;;;;4995440;28;20206;-61
2023/04/20 10:22:05;;;;;;;2.83;2.63;;;;;;;;;;4995091;28;20447;-61
2023/04/20 10:24:33;;;;;;;2.90;2.30;;;;;;;;;;4994935;28;20211;-61
2023/04/20 10:27:01;;;;;;;2.60;2.40;;;;;;;;;;4995275;28;20214;-61
2023/04/20 10:29:30;;;;;;;3.08;2.78;;;;;;;;;;4994553;28;20199;-61
2023/04/20 10:31:57;;;;;;;2.55;2.40;;;;;;;;;;4994373;28;20653;-61
2023/04/20 10:34:32;;;;;;;2.42;2.33;;;;;;;;;;4994605;28;20215;-61
2023/04/20 10:37:10;;;;;;;2.75;2.55;;;;;;;;;;4994597;28;20210;-61
2023/04/20 10:39:37;;;;;;;2.88;2.63;;;;;;;;;;4994236;28;20275;-63
2023/04/20 10:42:05;;;;;;;2.60;2.40;;;;;;;;;;4994769;28;20207;-61
2023/04/20 10:44:34;;;;;;;2.50;2.30;;;;;;;;;;4994484;28;20207;-61
2023/04/20 10:47:01;;;;;;;2.70;2.50;;;;;;;;;;4995623;28;20215;-61
2023/04/20 10:49:30;;;;;;;2.50;2.30;;;;;;;;;;4994709;28;20199;-62
2023/04/20 10:51:59;;;;;;;2.72;2.53;;;;;;;;;;4994537;28;20207;-61
2023/04/20 10:54:27;;;;;;;2.72;2.38;;;;;;;;;;4994763;28;20268;-61
2023/04/20 10:56:55;;;;;;;2.53;2.25;;;;;;;;;;4994525;28;20207;-61
2023/04/20 10:59:23;;;;;;;2.38;2.20;;;;;;;;;;4995019;28;20210;-63
2023/04/20 11:01:52;;;;;;;2.80;2.60;;;;;;;;;;4994537;28;20207;-61
2023/04/20 11:04:30;;;;;;;2.38;2.28;;;;;;;;;;4994465;28;20250;-61
2023/04/20 11:07:05;;;;;;;2.47;2.38;;;;;;;;;;4994169;28;20302;-61
2023/04/20 11:09:33;;;;;;;2.50;2.30;;;;;;;;;;4994932;28;20312;-61
2023/04/20 11:12:00;;;;;;;2.30;2.20;;;;;;;;;;4995311;28;20310;-61
2023/04/20 11:14:28;;;;;;;2.65;2.45;;;;;;;;;;4995120;28;20570;-61
2023/04/20 11:16:55;;;;;;;2.45;2.25;;;;;;;;;;4995270;28;20207;-61
2023/04/20 11:19:24;;;;;;;2.40;2.30;;;;;;;;;;4994195;28;20583;-61
2023/04/20 11:21:51;;;;;;;2.38;2.28;;;;;;;;;;4994178;28;20642;-61
2023/04/20 11:24:20;;;;;;;2.40;2.20;;;;;;;;;;4994980;28;20587;-61
2023/04/20 11:26:49;;;;;;;2.50;2.30;;;;;;;;;;4994286;28;20265;-61
2023/04/20 11:29:27;;;;;;;2.45;2.30;;;;;;;;;;4994182;28;20301;-61
2023/04/20 11:31:55;;;;;;;2.72;2.50;;;;;;;;;;4993298;28;20313;-61
2023/04/20 11:34:22;;;;;;;2.17;2.08;;;;;;;;;;4993475;28;20269;-61
2023/04/20 11:36:50;;;;;;;2.60;2.40;;;;;;;;;;4993739;28;20305;-61
2023/04/20 11:39:24;;;;;;;2.20;2.00;;;;;;;;;;4993619;28;20311;-61
2023/04/20 11:41:52;;;;;;;2.50;2.30;;;;;;;;;;4993890;28;20297;-61
2023/04/20 11:44:19;;;;;;;2.13;2.03;;;;;;;;;;4993501;28;20290;-61
2023/04/20 11:46:47;;;;;;;2.78;2.58;;;;;;;;;;4994042;28;20782;-61
2023/04/20 11:49:15;;;;;;;2.50;2.30;;;;;;;;;;4993745;28;20215;-61
2023/04/20 11:51:43;;;;;;;2.20;2.10;;;;;;;;;;4994451;28;20342;-61
2023/04/20 11:54:11;;;;;;;2.20;2.10;;;;;;;;;;4993965;28;20301;-61
2023/04/20 11:56:40;;;;;;;2.67;2.47;;;;;;;;;;4994539;28;20207;-61
2023/04/20 11:59:08;;;;;;;2.40;2.30;;;;;;;;;;4993756;28;20211;-62
2023/04/20 12:01:36;;;;;;;2.45;2.20;;;;;;;;;;4993599;28;20203;-61
2023/04/20 12:04:04;;;;;;;2.15;2.05;;;;;;;;;;4993772;28;20734;-63
2023/04/20 12:06:32;;;;;;;2.40;2.30;;;;;;;;;;4993608;28;20595;-61
2023/04/20 12:08:59;;;;;;;2.42;2.30;;;;;;;;;;4994144;28;20226;-61
2023/04/20 12:11:27;;;;;;;2.20;2.10;;;;;;;;;;4993848;28;20227;-61
2023/04/20 12:13:56;;;;;;;2.40;2.20;;;;;;;;;;4993807;28;20211;-61
2023/04/20 12:16:23;;;;;;;2.30;2.10;;;;;;;;;;4992619;28;20293;-61
2023/04/20 12:18:50;;;;;;;2.58;2.38;;;;;;;;;;4993453;28;20214;-61
2023/04/20 12:21:18;;;;;;;2.30;2.10;;;;;;;;;;4993127;28;20200;-61
2023/04/20 12:23:47;;;;;;;2.58;2.38;;;;;;;;;;4992612;28;20219;-61
2023/04/20 12:26:15;;;;;;;2.33;2.15;;;;;;;;;;4993003;28;20207;-61
2023/04/20 12:28:43;;;;;;;2.33;2.17;;;;;;;;;;4993446;28;20206;-61
2023/04/20 12:31:12;;;;;;;2.42;2.22;;;;;;;;;;4993295;28;20227;-61
2023/04/20 12:33:39;;;;;;;2.38;2.28;;;;;;;;;;4996036;28;20203;-61
2023/04/20 12:36:07;;;;;;;2.10;2.00;;;;;;;;;;4996749;28;20482;-61
2023/04/20 12:38:35;;;;;;;2.20;2.00;;;;;;;;;;4996684;28;20326;-61
2023/04/20 12:41:03;;;;;;;2.30;2.20;;;;;;;;;;4996996;28;20203;-61
2023/04/20 12:43:30;;;;;;;2.30;2.10;;;;;;;;;;4996758;28;20210;-61
2023/04/20 12:45:57;;;;;;;2.42;2.22;;;;;;;;;;4996197;28;20322;-62
2023/04/20 12:48:26;;;;;;;2.15;1.98;;;;;;;;;;4995676;28;20207;-61
2023/04/20 12:50:53;;;;;;;2.38;2.20;;;;;;;;;;4996550;28;20242;-61
2023/04/20 12:53:21;;;;;;;2.38;2.17;;;;;;;;;;4996641;28;20218;-61
2023/04/20 12:55:48;;;;;;;2.42;2.22;;;;;;;;;;4996011;28;20220;-61
2023/04/20 12:58:16;;;;;;;2.55;2.35;;;;;;;;;;4995928;28;20549;-61
2023/04/20 13:00:43;;;;;;;2.20;2.00;;;;;;;;;;4996724;28;20266;-62
2023/04/20 13:03:10;;;;;;;2.25;2.15;;;;;;;;;;4995985;28;20238;-61
2023/04/20 13:05:41;;;;;;;2.60;2.40;;;;;;;;;;4996338;28;20230;-61
2023/04/20 13:08:08;;;;;;;2.40;2.20;;;;;;;;;;4997385;28;20206;-61
2023/04/20 13:10:36;;;;;;;2.10;2.00;;;;;;;;;;4996883;28;20227;-61
2023/04/20 13:13:04;;;;;;;2.38;2.17;;;;;;;;;;4996493;28;20563;-61
2023/04/20 13:15:31;;;;;;;2.17;2.08;;;;;;;;;;4996167;28;20738;-61
2023/04/20 13:17:58;;;;;;;2.20;2.00;;;;;;;;;;4996163;28;20202;-61
2023/04/20 13:20:28;;;;;;;2.38;2.17;;;;;;;;;;4995805;28;20727;-61
2023/04/20 13:22:57;;;;;;;2.47;2.28;;;;;;;;;;4996546;28;20215;-62
2023/04/20 13:25:24;;;;;;;2.30;2.20;;;;;;;;;;4997124;28;20289;-61
2023/04/20 13:27:52;;;;;;;2.20;2.10;;;;;;;;;;4996562;28;20313;-61
2023/04/20 13:30:19;;;;;;;2.20;2.10;;;;;;;;;;4996403;28;20290;-61
2023/04/20 13:32:46;;;;;;;2.25;2.15;;;;;;;;;;4996282;28;20215;-61
2023/04/20 13:35:14;;;;;;;2.00;1.90;;;;;;;;;;4995662;28;20238;-63
2023/04/20 13:37:41;;;;;;;2.38;2.22;;;;;;;;;;4996319;28;20219;-61
2023/04/20 13:40:10;;;;;;;2.28;2.08;;;;;;;;;;4996102;28;20591;-63
2023/04/20 13:42:37;;;;;;;2.33;2.22;;;;;;;;;;4995270;28;20211;-63
2023/04/20 13:45:05;;;;;;;2.38;2.17;;;;;;;;;;4996198;28;20404;-61
2023/04/20 13:47:32;;;;;;;2.40;2.20;;;;;;;;;;4995857;28;20214;-61
2023/04/20 13:50:02;;;;;;;2.20;2.10;;;;;;;;;;4995646;28;20519;-62
2023/04/20 13:52:29;;;;;;;2.60;2.40;;;;;;;;;;4995106;28;20255;-61
2023/04/20 13:54:57;;;;;;;2.42;2.22;;;;;;;;;;4995074;28;20211;-61
2023/04/20 13:57:25;;;;;;;1.90;1.80;;;;;;;;;;4994474;28;20310;-61
2023/04/20 13:59:53;;;;;;;2.40;2.20;;;;;;;;;;4995641;28;20218;-61
2023/04/20 14:02:20;;;;;;;2.65;2.20;;;;;;;;;;4995630;28;20214;-61
2023/04/20 14:04:48;;;;;;;2.40;2.20;;;;;;;;;;4995137;28;20238;-63
2023/04/20 14:07:15;;;;;;;2.25;2.05;;;;;;;;;;4995671;28;20199;-61
2023/04/20 14:09:43;;;;;;;2.42;2.25;;;;;;;;;;4996239;28;20273;-61
2023/04/20 14:12:10;;;;;;;2.17;2.05;;;;;;;;;;4995486;28;20330;-61
2023/04/20 14:14:39;;;;;;;2.40;2.20;;;;;;;;;;4994921;28;20213;-61
2023/04/20 14:17:07;;;;;;;2.33;2.22;;;;;;;;;;4994134;28;20311;-61
2023/04/20 14:19:34;;;;;;;2.53;2.33;;;;;;;;;;4993831;28;20217;-61
2023/04/20 14:22:01;;;;;;;2.45;2.25;;;;;;;;;;4995005;28;20203;-61
2023/04/20 14:24:29;;;;;;;2.50;2.40;;;;;;;;;;4995452;28;20211;-61
2023/04/20 14:26:56;;;;;;;2.70;2.50;;;;;;;;;;4995230;28;20211;-61
2023/04/20 14:29:24;;;;;;;2.17;2.08;;;;;;;;;;4995296;28;20199;-63
2023/04/20 14:31:53;;;;;;;2.33;2.22;;;;;;;;;;4994072;28;20326;-61
2023/04/20 14:34:20;;;;;;;2.60;2.40;;;;;;;;;;4994750;28;20243;-61
2023/04/20 14:36:48;;;;;;;2.58;2.38;;;;;;;;;;4996530;28;20207;-61
2023/04/20 14:39:16;;;;;;;2.47;2.20;;;;;;;;;;4995405;28;20207;-63
2023/04/20 14:41:43;;;;;;;2.40;2.20;;;;;;;;;;4995219;28;20207;-63
2023/04/20 14:44:10;;;;;;;2.60;2.40;;;;;;;;;;4994936;28;20203;-61
2023/04/20 14:46:37;;;;;;;2.92;2.72;;;;;;;;;;4994395;28;20214;-61